Time;durP1;ratioP1;P1;durP2;ratioP2;P2;SDS_P1;SDS_P2;PMS_P1;PMS_P2;Temp;Humidity;BMP_temperature;BMP_pressure;BME280_temperature;BME280_humidity;BME280_pressure;Samples;Min_cycle;Max_cycle;Signal;HPM_P1;HPM_P2
2021/05/04 00:01:47;;;;;;;3.38;3.08;;;6.30;99.60;;;;;;5013107;28;20194;-73
2021/05/04 00:04:14;;;;;;;3.28;2.97;;;6.30;99.70;;;;;;5013158;28;20709;-72
2021/05/04 00:06:40;;;;;;;3.60;3.30;;;6.40;99.40;;;;;;5012939;28;20195;-73
2021/05/04 00:09:07;;;;;;;4.82;3.80;;;6.40;99.40;;;;;;5012008;28;20218;-72
2021/05/04 00:11:34;;;;;;;4.68;4.18;;;6.40;99.30;;;;;;5012620;28;20191;-73
2021/05/04 00:14:00;;;;;;;3.70;3.40;;;6.40;99.40;;;;;;5011527;28;20195;-73
2021/05/04 00:16:26;;;;;;;3.67;3.30;;;6.50;99.20;;;;;;5012267;28;20199;-70
2021/05/04 00:18:52;;;;;;;3.75;3.45;;;6.60;99.20;;;;;;5011922;28;20214;-71
2021/05/04 00:21:18;;;;;;;5.38;3.20;;;6.60;99.00;;;;;;5012993;28;20254;-70
2021/05/04 00:23:45;;;;;;;5.40;3.72;;;6.70;98.90;;;;;;5012527;28;20229;-70
2021/05/04 00:26:12;;;;;;;4.15;3.25;;;6.70;99.00;;;;;;5012795;28;20280;-70
2021/05/04 00:28:38;;;;;;;4.97;3.85;;;6.70;99.00;;;;;;5011871;28;20678;-71
2021/05/04 00:31:04;;;;;;;3.65;3.30;;;6.60;98.90;;;;;;5012672;28;20213;-70
2021/05/04 00:33:31;;;;;;;4.40;3.35;;;6.70;99.10;;;;;;5012700;28;20202;-71
2021/05/04 00:35:58;;;;;;;4.00;3.70;;;6.60;99.40;;;;;;5012327;28;20213;-71
2021/05/04 00:38:25;;;;;;;9.63;4.30;;;6.60;99.80;;;;;;5012154;28;20206;-71
2021/05/04 00:40:51;;;;;;;9.05;4.90;;;6.50;99.90;;;;;;5012230;28;20222;-71
2021/05/04 00:43:24;;;;;;;9.18;5.40;;;6.40;99.90;;;;;;5012119;28;20214;-71
2021/05/04 00:45:50;;;;;;;7.50;4.72;;;6.30;99.90;;;;;;5012283;28;20674;-71
2021/05/04 00:48:16;;;;;;;6.25;4.20;;;6.20;99.90;;;;;;5011454;28;20209;-71
2021/05/04 00:50:42;;;;;;;6.03;3.70;;;6.30;99.90;;;;;;5012180;28;20621;-71
2021/05/04 00:53:09;;;;;;;4.78;3.55;;;6.20;99.90;;;;;;5011453;28;20198;-70
2021/05/04 00:55:35;;;;;;;4.32;3.45;;;6.30;99.70;;;;;;5012393;28;20207;-71
2021/05/04 00:58:02;;;;;;;4.30;3.42;;;6.30;99.50;;;;;;5011293;28;20202;-71
2021/05/04 01:00:29;;;;;;;4.43;3.70;;;6.40;99.40;;;;;;5011754;28;20238;-71
2021/05/04 01:02:57;;;;;;;6.20;3.65;;;6.40;99.30;;;;;;5012106;28;20280;-71
2021/05/04 01:05:23;;;;;;;4.25;3.50;;;6.50;99.00;;;;;;5006648;28;20227;-71
2021/05/04 01:07:50;;;;;;;5.00;3.70;;;6.50;98.90;;;;;;5009145;28;20202;-70
2021/05/04 01:10:16;;;;;;;4.20;3.83;;;6.60;98.90;;;;;;5011265;28;20649;-71
2021/05/04 01:12:42;;;;;;;4.35;3.95;;;6.60;98.70;;;;;;5011753;28;20225;-71
2021/05/04 01:15:09;;;;;;;4.07;3.60;;;6.60;98.60;;;;;;5011673;28;20205;-71
2021/05/04 01:17:36;;;;;;;3.75;3.45;;;6.70;98.50;;;;;;5011092;28;20445;-70
2021/05/04 01:20:04;;;;;;;5.53;4.13;;;6.60;98.60;;;;;;5011167;28;20238;-71
2021/05/04 01:22:31;;;;;;;3.60;3.30;;;6.70;98.50;;;;;;5011398;28;20277;-70
2021/05/04 01:24:57;;;;;;;4.60;3.40;;;6.60;98.60;;;;;;5010903;28;20725;-71
2021/05/04 01:27:24;;;;;;;4.80;3.65;;;6.60;98.70;;;;;;5011090;28;20206;-71
2021/05/04 01:29:50;;;;;;;3.83;3.42;;;6.70;98.60;;;;;;5010664;28;20223;-71
2021/05/04 01:32:16;;;;;;;4.07;3.78;;;6.70;98.60;;;;;;5011436;28;20265;-70
2021/05/04 01:34:43;;;;;;;7.35;3.30;;;6.60;98.50;;;;;;5011289;28;20202;-71
2021/05/04 01:37:10;;;;;;;4.38;3.88;;;6.70;98.40;;;;;;5011387;28;20203;-70
2021/05/04 01:39:43;;;;;;;4.07;3.33;;;6.70;98.60;;;;;;5010744;28;20235;-70
2021/05/04 01:42:10;;;;;;;4.18;3.53;;;6.70;98.50;;;;;;5010986;28;20210;-70
2021/05/04 01:44:37;;;;;;;3.90;3.53;;;6.60;98.50;;;;;;5011228;28;20276;-70
2021/05/04 01:47:04;;;;;;;3.40;3.10;;;6.50;98.60;;;;;;5010989;28;20206;-73
2021/05/04 01:49:31;;;;;;;4.28;3.88;;;6.50;98.60;;;;;;5008557;28;20229;-73
2021/05/04 01:51:57;;;;;;;3.70;3.40;;;6.60;98.70;;;;;;5010860;28;20207;-73
2021/05/04 01:54:24;;;;;;;4.10;3.30;;;6.60;98.30;;;;;;5010911;28;20202;-73
2021/05/04 01:56:52;;;;;;;3.70;3.35;;;6.60;98.30;;;;;;5010946;28;20206;-73
2021/05/04 01:59:18;;;;;;;3.92;3.53;;;6.60;98.20;;;;;;5008109;28;20222;-73
2021/05/04 02:01:45;;;;;;;4.43;3.33;;;6.60;98.50;;;;;;5010878;28;20202;-73
2021/05/04 02:04:11;;;;;;;3.90;3.28;;;6.60;98.20;;;;;;5010020;28;20280;-73
2021/05/04 02:06:37;;;;;;;3.85;3.55;;;6.60;98.10;;;;;;5010415;28;20194;-73
2021/05/04 02:09:05;;;;;;;3.50;3.20;;;6.60;98.20;;;;;;5010142;28;20226;-73
2021/05/04 02:11:31;;;;;;;3.33;3.03;;;6.60;98.10;;;;;;5010824;28;20198;-73
2021/05/04 02:13:58;;;;;;;5.32;3.42;;;6.60;98.10;;;;;;5009729;28;20695;-73
2021/05/04 02:16:25;;;;;;;4.85;3.35;;;6.70;98.00;;;;;;5010366;28;20218;-73
2021/05/04 02:18:52;;;;;;;3.22;2.92;;;6.70;98.10;;;;;;5010293;28;20242;-73
2021/05/04 02:21:18;;;;;;;2.90;2.70;;;6.70;98.00;;;;;;5010473;28;20214;-73
2021/05/04 02:23:44;;;;;;;3.53;3.17;;;6.80;97.90;;;;;;5002540;28;20214;-73
2021/05/04 02:26:12;;;;;;;4.03;3.33;;;6.90;97.70;;;;;;5010637;28;20206;-73
2021/05/04 02:28:39;;;;;;;7.45;3.40;;;6.90;97.70;;;;;;5010159;28;20222;-73
2021/05/04 02:31:08;;;;;;;4.22;3.65;;;7.00;97.50;;;;;;5010854;28;20206;-72
2021/05/04 02:33:34;;;;;;;5.35;3.13;;;7.00;97.80;;;;;;5010592;28;20241;-73
2021/05/04 02:36:01;;;;;;;3.53;3.22;;;7.00;97.60;;;;;;5010624;28;20202;-72
2021/05/04 02:38:29;;;;;;;4.03;3.58;;;7.00;97.40;;;;;;5010001;28;20206;-72
2021/05/04 02:40:56;;;;;;;3.30;3.00;;;7.00;97.60;;;;;;5010674;28;20218;-72
2021/05/04 02:43:22;;;;;;;4.75;3.00;;;7.00;97.90;;;;;;5010712;28;20214;-72
2021/05/04 02:45:48;;;;;;;7.35;3.35;;;6.90;97.90;;;;;;5010587;28;20942;-72
2021/05/04 02:48:15;;;;;;;3.10;2.80;;;6.90;97.80;;;;;;5007402;28;20252;-72
2021/05/04 02:50:42;;;;;;;3.78;3.10;;;7.00;98.00;;;;;;5010115;28;20253;-72
2021/05/04 02:53:08;;;;;;;4.00;3.13;;;6.90;98.00;;;;;;5010235;28;20218;-72
2021/05/04 02:55:34;;;;;;;3.72;3.00;;;6.90;97.80;;;;;;5010744;28;20222;-71
2021/05/04 02:58:00;;;;;;;3.53;3.22;;;7.00;97.70;;;;;;5009458;28;20209;-72
2021/05/04 03:00:26;;;;;;;3.08;2.88;;;7.00;97.90;;;;;;5009992;28;20222;-71
2021/05/04 03:02:53;;;;;;;3.60;3.05;;;7.00;97.90;;;;;;5010385;28;20210;-71
2021/05/04 03:05:20;;;;;;;4.05;3.00;;;7.00;98.40;;;;;;5009751;28;20226;-71
2021/05/04 03:07:46;;;;;;;3.88;3.47;;;7.00;97.80;;;;;;4990273;28;20207;-71
2021/05/04 03:10:12;;;;;;;4.40;3.88;;;7.00;98.00;;;;;;4990222;28;20596;-71
2021/05/04 03:12:39;;;;;;;3.30;3.00;;;7.00;97.80;;;;;;4990905;28;20207;-72
2021/05/04 03:15:06;;;;;;;4.13;3.17;;;7.10;97.70;;;;;;4990601;28;20662;-72
2021/05/04 03:17:32;;;;;;;3.45;3.15;;;7.00;97.60;;;;;;4990931;28;20238;-72
2021/05/04 03:19:59;;;;;;;3.05;2.75;;;7.10;97.50;;;;;;4990055;28;20643;-71
2021/05/04 03:22:26;;;;;;;6.32;3.20;;;7.20;97.20;;;;;;4990351;28;20576;-72
2021/05/04 03:24:52;;;;;;;3.50;3.10;;;7.20;97.20;;;;;;4994697;28;20232;-72
2021/05/04 03:27:19;;;;;;;3.58;2.90;;;7.20;97.10;;;;;;5004620;28;20195;-72
2021/05/04 03:29:45;;;;;;;3.97;2.67;;;7.20;97.20;;;;;;5002768;28;20705;-72
2021/05/04 03:32:11;;;;;;;3.95;3.35;;;7.20;97.40;;;;;;5008890;28;20205;-73
2021/05/04 03:34:37;;;;;;;3.30;3.00;;;7.20;97.30;;;;;;5008337;28;20194;-72
2021/05/04 03:37:04;;;;;;;3.53;3.13;;;7.20;97.20;;;;;;5007785;28;20210;-72
2021/05/04 03:39:31;;;;;;;3.05;2.85;;;7.20;97.20;;;;;;5001138;28;20223;-73
2021/05/04 03:41:57;;;;;;;3.65;2.90;;;7.20;97.20;;;;;;5008354;28;20580;-73
2021/05/04 03:44:23;;;;;;;3.90;3.05;;;7.20;97.20;;;;;;5007303;28;20214;-73
2021/05/04 03:46:49;;;;;;;4.95;2.90;;;7.20;97.30;;;;;;5008046;28;20264;-73
2021/05/04 03:49:15;;;;;;;2.85;2.50;;;7.20;97.50;;;;;;5006697;28;20249;-74
2021/05/04 03:51:42;;;;;;;2.75;2.55;;;7.20;97.00;;;;;;5010112;28;20213;-73
2021/05/04 03:54:08;;;;;;;3.40;2.65;;;7.30;96.80;;;;;;5009706;28;20740;-73
2021/05/04 03:56:35;;;;;;;3.05;2.75;;;7.30;96.60;;;;;;5007538;28;20194;-72
2021/05/04 03:59:01;;;;;;;3.20;2.90;;;7.30;96.70;;;;;;5007777;28;20225;-71
2021/05/04 04:01:27;;;;;;;2.97;2.72;;;7.30;96.50;;;;;;5008034;28;20202;-71
2021/05/04 04:03:54;;;;;;;2.95;2.65;;;7.40;96.60;;;;;;5002087;28;20272;-72
2021/05/04 04:06:20;;;;;;;2.60;2.40;;;7.40;96.70;;;;;;5002361;28;20246;-72
2021/05/04 04:08:48;;;;;;;3.00;2.70;;;7.40;96.70;;;;;;5005483;28;20214;-72
2021/05/04 04:11:14;;;;;;;3.10;2.90;;;7.40;96.80;;;;;;5007118;28;20273;-72
2021/05/04 04:13:41;;;;;;;2.67;2.40;;;7.40;96.60;;;;;;5007472;28;20209;-72
2021/05/04 04:16:07;;;;;;;3.67;2.80;;;7.40;96.30;;;;;;5007382;28;20199;-72
2021/05/04 04:18:33;;;;;;;2.72;2.33;;;7.50;96.30;;;;;;5008134;28;20210;-74
2021/05/04 04:21:00;;;;;;;3.83;3.15;;;7.50;96.50;;;;;;5009008;28;20226;-72
2021/05/04 04:23:26;;;;;;;3.30;2.45;;;7.50;96.70;;;;;;5008664;28;20211;-73
2021/05/04 04:25:52;;;;;;;3.08;2.70;;;7.40;96.80;;;;;;5008808;28;20223;-72
2021/05/04 04:28:18;;;;;;;2.85;2.58;;;7.40;97.10;;;;;;5009692;28;20202;-72
2021/05/04 04:30:46;;;;;;;3.10;2.90;;;7.40;97.00;;;;;;5011541;28;20768;-72
2021/05/04 04:33:12;;;;;;;2.83;2.55;;;7.40;96.90;;;;;;5011985;28;20623;-72
2021/05/04 04:35:38;;;;;;;2.88;2.67;;;7.40;97.00;;;;;;5011065;28;20745;-71
2021/05/04 04:38:04;;;;;;;5.07;2.35;;;7.40;97.20;;;;;;5014916;28;20442;-72
2021/05/04 04:40:31;;;;;;;3.10;2.80;;;7.40;96.90;;;;;;5011451;28;20222;-72
2021/05/04 04:42:57;;;;;;;3.00;2.70;;;7.40;96.80;;;;;;5010172;28;20756;-72
2021/05/04 04:45:23;;;;;;;4.45;2.53;;;7.50;96.80;;;;;;5011908;28;20280;-72
2021/05/04 04:47:50;;;;;;;2.40;2.20;;;7.50;97.00;;;;;;5010959;28;20206;-71
2021/05/04 04:50:16;;;;;;;4.05;2.55;;;7.50;96.50;;;;;;5012449;28;20756;-72
2021/05/04 04:52:42;;;;;;;3.33;2.97;;;7.60;96.50;;;;;;5012643;28;20669;-71
2021/05/04 04:55:09;;;;;;;3.05;2.72;;;7.70;96.50;;;;;;5012249;28;20194;-71
2021/05/04 04:57:35;;;;;;;2.30;2.10;;;7.70;96.40;;;;;;5012378;28;20214;-72
2021/05/04 05:00:01;;;;;;;4.15;2.80;;;7.70;96.30;;;;;;5011904;28;20632;-72
2021/05/04 05:02:28;;;;;;;2.67;2.47;;;7.80;96.20;;;;;;5012012;28;20207;-72
2021/05/04 05:04:55;;;;;;;3.20;2.90;;;7.80;96.40;;;;;;5012038;28;20281;-71
2021/05/04 05:07:21;;;;;;;2.95;2.70;;;7.90;96.20;;;;;;5012411;28;20210;-73
2021/05/04 05:09:47;;;;;;;3.15;2.85;;;8.00;96.00;;;;;;5011567;28;20717;-71
2021/05/04 05:12:13;;;;;;;3.28;2.60;;;8.00;95.90;;;;;;5012082;28;20238;-72
2021/05/04 05:14:40;;;;;;;4.75;2.40;;;8.10;96.00;;;;;;5012304;28;20199;-72
2021/05/04 05:17:07;;;;;;;3.10;2.80;;;8.10;96.00;;;;;;5011775;28;20209;-72
2021/05/04 05:19:33;;;;;;;2.97;2.72;;;8.10;95.80;;;;;;5080094;22;20205;-70
2021/05/04 05:22:02;;;;;;;2.65;2.45;;;8.10;96.10;;;;;;5011680;28;20206;-70
2021/05/04 05:24:28;;;;;;;2.97;2.67;;;8.20;95.90;;;;;;5011219;28;20253;-69
2021/05/04 05:26:54;;;;;;;3.72;3.35;;;8.20;95.90;;;;;;5011705;28;20237;-68
2021/05/04 05:29:21;;;;;;;3.28;2.95;;;8.30;95.40;;;;;;5011006;28;20226;-67
2021/05/04 05:31:47;;;;;;;2.58;2.33;;;8.40;95.40;;;;;;5011370;28;20202;-68
2021/05/04 05:34:13;;;;;;;3.30;3.00;;;8.50;95.50;;;;;;5011825;28;20248;-68
2021/05/04 05:36:39;;;;;;;3.30;2.80;;;8.50;95.50;;;;;;5011278;28;20237;-69
2021/05/04 05:39:06;;;;;;;3.20;2.90;;;8.60;95.70;;;;;;5010170;28;20222;-69
2021/05/04 05:41:33;;;;;;;3.15;2.80;;;8.70;95.30;;;;;;5010841;28;20206;-70
2021/05/04 05:43:59;;;;;;;3.67;3.38;;;8.70;95.20;;;;;;5011541;28;20570;-70
2021/05/04 05:46:30;;;;;;;3.38;2.90;;;8.80;95.30;;;;;;5011351;28;20202;-70
2021/05/04 05:48:56;;;;;;;3.85;2.90;;;8.90;95.20;;;;;;5010856;28;20573;-68
2021/05/04 05:51:22;;;;;;;2.95;2.70;;;8.90;95.20;;;;;;5011262;28;20207;-68
2021/05/04 05:53:49;;;;;;;2.75;2.55;;;9.10;94.70;;;;;;5010922;28;20207;-70
2021/05/04 05:56:16;;;;;;;3.20;2.90;;;9.10;94.80;;;;;;5011370;28;20550;-70
2021/05/04 05:58:42;;;;;;;3.40;2.20;;;9.30;94.60;;;;;;5010630;28;20210;-69
2021/05/04 06:01:08;;;;;;;6.03;2.80;;;9.40;94.60;;;;;;5011295;28;20230;-69
2021/05/04 06:03:34;;;;;;;2.83;2.63;;;9.50;94.40;;;;;;5011159;28;20206;-70
2021/05/04 06:06:01;;;;;;;3.33;2.70;;;9.60;94.10;;;;;;5011351;28;20235;-70
2021/05/04 06:08:27;;;;;;;3.10;2.80;;;9.70;94.00;;;;;;5010009;28;20252;-68
2021/05/04 06:10:54;;;;;;;2.65;2.42;;;9.80;93.70;;;;;;5010806;28;20261;-69
2021/05/04 06:13:21;;;;;;;4.30;2.47;;;9.90;93.80;;;;;;5004557;28;20202;-69
2021/05/04 06:15:48;;;;;;;5.50;2.70;;;9.90;93.50;;;;;;5009442;28;20253;-69
2021/05/04 06:18:14;;;;;;;2.63;2.42;;;10.00;93.10;;;;;;5009208;28;20203;-70
2021/05/04 06:20:40;;;;;;;2.80;2.45;;;10.10;92.60;;;;;;5008916;28;20249;-69
2021/05/04 06:23:07;;;;;;;3.85;2.65;;;10.30;92.70;;;;;;5009079;28;20229;-68
2021/05/04 06:25:34;;;;;;;3.63;2.17;;;10.40;92.50;;;;;;5008847;28;20333;-70
2021/05/04 06:28:04;;;;;;;3.50;3.10;;;10.40;92.60;;;;;;5008750;28;20229;-69
2021/05/04 06:30:34;;;;;;;2.67;2.47;;;10.50;92.00;;;;;;5009133;28;20229;-69
2021/05/04 06:33:05;;;;;;;2.53;2.33;;;10.60;91.80;;;;;;5009212;28;20203;-68
2021/05/04 06:35:33;;;;;;;2.70;2.45;;;10.70;91.40;;;;;;5009250;28;20824;-68
2021/05/04 06:38:00;;;;;;;3.35;2.35;;;10.80;91.80;;;;;;5008620;28;20456;-67
2021/05/04 06:40:26;;;;;;;3.25;2.20;;;10.90;91.50;;;;;;5009009;28;20226;-66
2021/05/04 06:42:52;;;;;;;2.35;2.15;;;11.00;91.80;;;;;;5009316;28;20217;-67
2021/05/04 06:45:18;;;;;;;2.47;2.22;;;11.10;91.20;;;;;;5009170;28;20228;-67
2021/05/04 06:47:45;;;;;;;3.40;2.58;;;11.20;90.90;;;;;;5008533;28;20240;-68
2021/05/04 06:50:12;;;;;;;3.92;2.78;;;11.20;90.90;;;;;;4991189;28;20634;-68
2021/05/04 06:52:38;;;;;;;2.42;2.03;;;11.30;90.80;;;;;;5000555;28;20206;-67
2021/05/04 06:55:05;;;;;;;2.45;2.25;;;11.40;90.40;;;;;;5008801;28;20198;-70
2021/05/04 06:57:31;;;;;;;2.58;2.30;;;11.50;90.40;;;;;;5008745;28;20244;-69
2021/05/04 06:59:57;;;;;;;2.58;2.30;;;11.50;90.50;;;;;;5008543;28;20339;-66
2021/05/04 07:02:24;;;;;;;2.42;2.22;;;11.60;90.20;;;;;;5009034;28;20252;-69
2021/05/04 07:04:51;;;;;;;2.47;2.28;;;11.60;90.30;;;;;;5005311;28;20219;-69
2021/05/04 07:07:17;;;;;;;3.60;2.95;;;11.70;90.20;;;;;;5006415;28;20241;-68
2021/05/04 07:09:44;;;;;;;2.65;2.45;;;11.70;90.00;;;;;;5005584;28;20233;-69
2021/05/04 07:12:11;;;;;;;2.20;2.05;;;11.70;90.10;;;;;;5006403;28;20639;-69
2021/05/04 07:14:39;;;;;;;4.45;2.22;;;11.80;89.90;;;;;;5006107;28;20617;-69
2021/05/04 07:17:06;;;;;;;4.20;2.35;;;11.90;89.30;;;;;;5004002;28;20240;-68
2021/05/04 07:19:32;;;;;;;2.70;2.30;;;12.00;90.10;;;;;;5003617;28;20226;-69
2021/05/04 07:21:59;;;;;;;2.58;2.05;;;12.20;90.00;;;;;;5004675;28;20284;-69
2021/05/04 07:24:25;;;;;;;3.83;2.03;;;12.40;89.30;;;;;;5003164;28;20226;-69
2021/05/04 07:26:52;;;;;;;3.25;2.40;;;12.50;89.00;;;;;;5002878;28;20662;-69
2021/05/04 07:29:18;;;;;;;7.13;2.30;;;12.60;87.10;;;;;;5005756;28;20219;-69
2021/05/04 07:31:44;;;;;;;3.38;2.00;;;12.70;87.00;;;;;;5003743;28;20211;-69
2021/05/04 07:34:10;;;;;;;2.15;1.98;;;12.80;86.80;;;;;;4993270;28;20210;-69
2021/05/04 07:36:36;;;;;;;4.32;2.00;;;12.90;86.80;;;;;;5003752;28;20611;-70
2021/05/04 07:39:04;;;;;;;2.20;2.00;;;13.00;85.70;;;;;;5003647;28;20222;-69
2021/05/04 07:41:31;;;;;;;2.35;2.10;;;13.20;85.70;;;;;;5004500;28;20206;-69
2021/05/04 07:43:58;;;;;;;4.00;2.13;;;13.40;84.40;;;;;;4996385;28;20662;-69
2021/05/04 07:46:24;;;;;;;2.90;2.10;;;13.50;84.20;;;;;;5001552;28;20482;-67
2021/05/04 07:48:50;;;;;;;2.95;2.05;;;13.70;82.70;;;;;;4993196;28;20477;-70
2021/05/04 07:51:17;;;;;;;4.63;1.90;;;13.90;83.20;;;;;;5003260;28;20229;-68
2021/05/04 07:53:43;;;;;;;2.03;1.83;;;14.00;81.60;;;;;;4997192;28;21044;-69
2021/05/04 07:56:10;;;;;;;2.10;1.87;;;14.20;82.20;;;;;;4996481;28;20461;-69
2021/05/04 07:58:36;;;;;;;3.13;2.10;;;14.30;81.50;;;;;;5002146;28;20515;-68
2021/05/04 08:01:03;;;;;;;4.10;1.90;;;14.40;81.10;;;;;;4988695;28;20497;-69
2021/05/04 08:03:30;;;;;;;3.80;1.80;;;14.50;80.10;;;;;;5003303;28;20485;-69
2021/05/04 08:05:56;;;;;;;2.20;2.00;;;14.50;80.40;;;;;;5000463;28;20989;-68
2021/05/04 08:08:22;;;;;;;2.40;2.20;;;14.60;80.40;;;;;;4997508;28;20837;-69
2021/05/04 08:10:49;;;;;;;2.83;1.90;;;14.60;79.50;;;;;;5006402;28;20487;-69
2021/05/04 08:13:18;;;;;;;4.20;1.97;;;14.70;79.40;;;;;;5008155;28;21055;-67
2021/05/04 08:15:45;;;;;;;2.90;1.90;;;14.80;78.10;;;;;;5007998;28;20493;-68
2021/05/04 08:18:14;;;;;;;3.73;2.00;;;14.70;78.40;;;;;;4998812;28;20460;-69
2021/05/04 08:20:46;;;;;;;3.00;1.90;;;14.70;78.40;;;;;;5005659;28;20492;-69
2021/05/04 08:23:13;;;;;;;2.33;1.80;;;14.80;78.80;;;;;;5007815;28;20512;-67
2021/05/04 08:25:40;;;;;;;2.27;2.07;;;14.90;78.70;;;;;;5010072;28;20489;-68
2021/05/04 08:28:06;;;;;;;2.43;1.93;;;15.00;78.00;;;;;;5008590;28;20810;-67
2021/05/04 08:30:33;;;;;;;2.43;1.90;;;15.10;79.00;;;;;;5008766;28;20499;-67
2021/05/04 08:33:00;;;;;;;1.90;1.60;;;15.10;78.60;;;;;;5008860;28;21180;-66
2021/05/04 08:35:26;;;;;;;2.43;1.87;;;15.00;77.60;;;;;;5008291;28;20464;-68
2021/05/04 08:37:54;;;;;;;3.60;2.10;;;15.00;78.90;;;;;;5008005;28;21004;-67
2021/05/04 08:40:22;;;;;;;1.90;1.80;;;15.10;77.80;;;;;;5008821;28;20513;-67
2021/05/04 08:42:48;;;;;;;2.67;2.27;;;15.10;77.70;;;;;;5008653;28;20460;-69
2021/05/04 08:45:15;;;;;;;6.23;1.70;;;15.30;77.50;;;;;;5008691;28;20489;-67
2021/05/04 08:47:44;;;;;;;2.23;1.90;;;15.60;78.50;;;;;;5008213;28;20465;-68
2021/05/04 08:50:14;;;;;;;3.73;2.07;;;15.90;77.20;;;;;;5002876;28;20488;-70
2021/05/04 08:52:40;;;;;;;3.30;2.03;;;16.00;75.80;;;;;;5008784;28;20496;-69
2021/05/04 08:55:08;;;;;;;3.40;2.20;;;16.10;76.50;;;;;;5006521;28;20464;-69
2021/05/04 08:57:36;;;;;;;3.20;2.40;;;16.30;75.70;;;;;;5007405;28;20461;-69
2021/05/04 09:00:05;;;;;;;3.67;1.97;;;16.30;75.40;;;;;;5003630;28;20929;-70
2021/05/04 09:02:35;;;;;;;3.03;2.27;;;16.40;77.10;;;;;;5006780;28;20559;-69
2021/05/04 09:05:15;;;;;;;2.03;1.90;;;16.60;75.30;;;;;;5008209;28;20535;-69
2021/05/04 09:07:42;;;;;;;2.17;2.00;;;16.80;76.60;;;;;;5009367;28;20461;-69
2021/05/04 09:10:22;;;;;;;2.17;1.97;;;17.00;75.00;;;;;;5007689;28;20485;-68
2021/05/04 09:12:53;;;;;;;3.87;2.47;;;16.90;74.50;;;;;;5005988;28;20473;-67
2021/05/04 09:16:18;;;;;;;3.80;1.70;;;17.00;76.00;;;;;;5006112;28;21044;-68
2021/05/04 09:19:08;;;;;;;3.10;2.00;;;16.50;75.00;;;;;;5007841;28;20500;-67
2021/05/04 09:21:39;;;;;;;8.80;2.43;;;16.30;74.80;;;;;;5006229;28;20496;-70
2021/05/04 09:24:24;;;;;;;4.33;2.57;;;16.50;75.30;;;;;;5007322;28;20475;-69
2021/05/04 09:26:58;;;;;;;2.20;1.97;;;16.50;74.40;;;;;;5004854;28;20817;-67
2021/05/04 09:29:31;;;;;;;2.47;1.80;;;16.40;75.00;;;;;;5003414;28;20492;-68
2021/05/04 09:32:13;;;;;;;3.60;1.87;;;16.60;74.90;;;;;;5004833;28;20493;-69
2021/05/04 09:34:54;;;;;;;2.23;1.90;;;16.60;73.20;;;;;;5002652;28;20468;-70
2021/05/04 09:37:27;;;;;;;2.70;2.30;;;16.60;75.00;;;;;;5005221;28;21066;-69
2021/05/04 09:39:55;;;;;;;2.03;1.87;;;16.60;74.50;;;;;;5004194;28;20481;-70
2021/05/04 09:42:21;;;;;;;3.93;2.13;;;16.60;75.10;;;;;;5004748;28;20476;-68
2021/05/04 09:44:52;;;;;;;2.23;2.03;;;16.40;74.00;;;;;;5005555;28;20528;-69
2021/05/04 09:47:20;;;;;;;1.87;1.70;;;16.50;74.00;;;;;;5004546;28;21047;-68
2021/05/04 09:49:47;;;;;;;1.90;1.80;;;17.00;73.70;;;;;;5003043;28;20473;-68
2021/05/04 09:52:36;;;;;;;3.10;1.80;;;17.20;74.00;;;;;;5005853;28;20491;-66
2021/05/04 09:55:06;;;;;;;2.77;2.20;;;17.30;72.60;;;;;;5004731;28;20461;-69
2021/05/04 09:57:39;;;;;;;2.00;1.90;;;17.50;72.50;;;;;;5002498;28;20456;-69
2021/05/04 10:00:11;;;;;;;2.10;1.90;;;17.60;72.40;;;;;;5004674;28;20508;-68
2021/05/04 10:02:38;;;;;;;2.50;2.07;;;17.70;72.40;;;;;;5004441;28;20465;-69
2021/05/04 10:05:07;;;;;;;2.00;1.67;;;17.50;72.00;;;;;;5004034;28;20478;-69
2021/05/04 10:07:37;;;;;;;2.93;2.40;;;17.30;71.90;;;;;;5003224;28;20457;-70
2021/05/04 10:10:05;;;;;;;3.47;1.87;;;17.50;73.30;;;;;;5006632;28;20492;-70
2021/05/04 10:12:32;;;;;;;4.03;2.20;;;18.00;71.70;;;;;;5004857;28;20468;-67
2021/05/04 10:15:03;;;;;;;4.43;1.90;;;18.40;70.90;;;;;;5003946;28;20457;-66
2021/05/04 10:17:32;;;;;;;2.50;2.30;;;18.90;70.30;;;;;;5003288;28;20476;-70
2021/05/04 10:20:00;;;;;;;2.80;2.10;;;19.10;70.10;;;;;;4998988;28;20495;-70
2021/05/04 10:22:26;;;;;;;4.73;1.83;;;19.00;70.00;;;;;;5003442;28;20511;-67
2021/05/04 10:24:54;;;;;;;2.60;2.17;;;18.50;70.10;;;;;;5003596;28;21032;-69
2021/05/04 10:27:21;;;;;;;2.43;2.10;;;18.40;70.50;;;;;;5002829;28;20465;-70
2021/05/04 10:29:51;;;;;;;2.40;2.00;;;18.40;69.40;;;;;;5001866;28;20492;-69
2021/05/04 10:32:48;;;;;;;3.23;1.77;;;18.50;69.70;;;;;;5004091;28;20473;-68
2021/05/04 10:35:37;;;;;;;3.10;2.10;;;18.40;71.00;;;;;;5001808;28;20952;-67
2021/05/04 10:38:05;;;;;;;2.20;1.90;;;18.40;69.80;;;;;;5003500;28;20925;-69
2021/05/04 10:40:34;;;;;;;2.87;1.60;;;18.30;70.10;;;;;;5004110;28;20504;-69
2021/05/04 10:43:02;;;;;;;2.33;2.07;;;18.20;71.20;;;;;;5003911;28;20859;-68
2021/05/04 10:45:42;;;;;;;2.27;2.07;;;18.40;72.40;;;;;;5002442;28;21051;-68
2021/05/04 10:48:09;;;;;;;2.43;2.00;;;18.10;70.90;;;;;;5003375;28;20461;-67
2021/05/04 10:50:49;;;;;;;3.07;2.57;;;18.20;70.70;;;;;;5003576;28;20900;-68
2021/05/04 10:53:16;;;;;;;3.30;2.30;;;18.10;70.40;;;;;;5004019;28;21201;-68
2021/05/04 10:56:07;;;;;;;5.33;2.50;;;17.90;71.10;;;;;;5002470;28;20487;-68
2021/05/04 10:58:44;;;;;;;2.90;2.30;;;17.70;69.60;;;;;;5004292;28;20461;-68
2021/05/04 11:01:16;;;;;;;6.57;3.10;;;17.40;70.20;;;;;;5000813;28;20501;-69
2021/05/04 11:03:51;;;;;;;3.30;2.10;;;17.30;71.10;;;;;;5002901;28;20883;-68
2021/05/04 11:06:43;;;;;;;3.00;2.13;;;17.40;71.90;;;;;;5003177;28;20496;-69
2021/05/04 11:09:14;;;;;;;4.93;2.20;;;17.80;70.70;;;;;;4995066;28;20490;-68
2021/05/04 11:11:45;;;;;;;2.83;2.20;;;18.30;70.70;;;;;;5000991;28;20469;-68
2021/05/04 11:14:23;;;;;;;4.70;2.30;;;18.10;68.40;;;;;;5000267;28;20476;-69
2021/05/04 11:17:02;;;;;;;2.57;2.13;;;17.80;70.30;;;;;;5003199;28;20547;-69
2021/05/04 11:19:31;;;;;;;3.20;2.53;;;17.90;71.20;;;;;;4999336;28;20813;-67
2021/05/04 11:22:06;;;;;;;4.00;2.20;;;18.00;70.00;;;;;;5002976;28;20469;-68
2021/05/04 11:24:41;;;;;;;4.80;2.43;;;18.40;69.20;;;;;;5002561;28;20484;-77
2021/05/04 11:27:33;;;;;;;2.30;2.10;;;18.80;69.00;;;;;;5003007;28;20944;-68
2021/05/04 11:30:03;;;;;;;3.43;2.27;;;19.10;68.60;;;;;;4997940;28;20520;-68
2021/05/04 11:32:44;;;;;;;4.70;1.90;;;19.00;69.00;;;;;;5002508;28;20564;-66
2021/05/04 11:35:12;;;;;;;5.40;2.33;;;18.80;69.30;;;;;;5000454;28;20877;-67
2021/05/04 11:37:45;;;;;;;3.93;2.10;;;18.60;69.20;;;;;;4998092;28;20979;-68
2021/05/04 11:40:17;;;;;;;3.87;2.37;;;18.50;69.70;;;;;;5005332;28;20844;-68
2021/05/04 11:42:46;;;;;;;2.30;2.10;;;18.80;69.40;;;;;;5000171;28;20960;-69
2021/05/04 11:45:14;;;;;;;2.63;2.30;;;19.20;69.80;;;;;;4999542;28;20485;-68
2021/05/04 11:47:42;;;;;;;2.50;2.30;;;19.30;68.50;;;;;;5007407;28;20457;-67
2021/05/04 11:50:11;;;;;;;8.20;2.30;;;18.70;69.80;;;;;;5008533;28;20484;-67
2021/05/04 11:52:39;;;;;;;4.20;1.87;;;18.80;70.20;;;;;;5008829;28;20494;-67
2021/05/04 11:55:18;;;;;;;3.27;1.80;;;19.20;70.00;;;;;;5008564;28;20457;-69
2021/05/04 11:57:47;;;;;;;4.83;1.87;;;19.60;69.40;;;;;;5006670;28;20522;-68
2021/05/04 12:00:17;;;;;;;3.90;2.50;;;19.60;68.60;;;;;;5008361;28;21080;-67
2021/05/04 12:02:45;;;;;;;5.33;2.40;;;19.30;68.30;;;;;;5005092;28;20453;-68
2021/05/04 12:05:14;;;;;;;2.13;1.93;;;18.80;68.50;;;;;;5008294;28;20512;-69
2021/05/04 12:07:43;;;;;;;2.27;2.07;;;18.40;69.40;;;;;;5007412;28;20471;-69
2021/05/04 12:10:33;;;;;;;3.13;2.00;;;18.40;69.40;;;;;;5008335;28;20976;-68
2021/05/04 12:13:05;;;;;;;4.40;2.03;;;18.40;71.40;;;;;;5007347;28;20468;-69
2021/05/04 12:15:33;;;;;;;4.47;2.33;;;18.30;70.80;;;;;;5008047;28;20472;-70
2021/05/04 12:18:02;;;;;;;2.70;2.00;;;18.00;71.30;;;;;;5004671;28;20836;-67
2021/05/04 12:20:31;;;;;;;3.10;2.40;;;17.60;71.80;;;;;;5008176;28;20496;-68
2021/05/04 12:23:00;;;;;;;2.00;1.90;;;17.20;73.20;;;;;;5009418;28;20473;-70
2021/05/04 12:25:51;;;;;;;2.23;2.03;;;17.00;74.70;;;;;;5005121;28;21004;-68
2021/05/04 12:28:21;;;;;;;2.40;2.20;;;16.70;75.50;;;;;;5006893;28;20480;-68
2021/05/04 12:30:48;;;;;;;3.67;2.30;;;16.50;76.70;;;;;;5005767;28;20492;-69
2021/05/04 12:33:19;;;;;;;2.73;2.50;;;16.50;79.20;;;;;;5006900;28;20464;-68
2021/05/04 12:35:55;;;;;;;2.50;2.30;;;16.80;78.20;;;;;;5006169;28;20485;-69
2021/05/04 12:38:24;;;;;;;2.80;2.50;;;17.30;78.20;;;;;;5004189;28;20523;-69
2021/05/04 12:40:55;;;;;;;2.00;1.80;;;17.70;78.60;;;;;;5006669;28;20491;-68
2021/05/04 12:43:26;;;;;;;2.77;2.40;;;18.10;78.70;;;;;;5007204;28;20457;-67
2021/05/04 12:46:07;;;;;;;2.60;2.40;;;17.90;77.40;;;;;;5006835;28;20539;-69
2021/05/04 12:48:34;;;;;;;2.97;2.30;;;17.70;78.40;;;;;;5001119;28;20495;-68
2021/05/04 12:51:03;;;;;;;3.10;2.60;;;17.50;81.20;;;;;;5006152;28;20485;-68
2021/05/04 12:53:35;;;;;;;2.90;1.97;;;17.40;81.30;;;;;;5006177;28;20765;-66
2021/05/04 12:56:07;;;;;;;3.67;2.50;;;17.40;81.50;;;;;;5006978;28;20457;-68
2021/05/04 12:58:51;;;;;;;2.67;1.80;;;17.40;81.90;;;;;;5007075;28;20472;-68
2021/05/04 13:01:18;;;;;;;2.10;1.90;;;17.40;81.70;;;;;;5006911;28;20829;-67